sensor_id;sensor_type;location;lat;lon;timestamp;pressure;altitude;pressure_sealevel;temperature;humidity
12624;BME280;6377;42.836;23.998;2023-02-27T00:01:43;94751.31;;;14.79;60.84
12624;BME280;6377;42.836;23.998;2023-02-27T00:04:10;94752.00;;;14.75;61.31
12624;BME280;6377;42.836;23.998;2023-02-27T00:06:37;94761.94;;;14.68;61.67
12624;BME280;6377;42.836;23.998;2023-02-27T00:09:05;94725.97;;;14.47;61.85
12624;BME280;6377;42.836;23.998;2023-02-27T00:11:32;94701.09;;;14.23;62.26
12624;BME280;6377;42.836;23.998;2023-02-27T00:14:01;94738.06;;;14.61;65.48
12624;BME280;6377;42.836;23.998;2023-02-27T00:16:28;94612.75;;;13.73;65.23
12624;BME280;6377;42.836;23.998;2023-02-27T00:18:56;94709.50;;;14.38;65.53
12624;BME280;6377;42.836;23.998;2023-02-27T00:21:25;94624.13;;;13.62;66.07
12624;BME280;6377;42.836;23.998;2023-02-27T00:23:53;94718.44;;;14.26;63.64
12624;BME280;6377;42.836;23.998;2023-02-27T00:26:20;94745.00;;;14.32;65.02
12624;BME280;6377;42.836;23.998;2023-02-27T00:28:48;94773.47;;;14.62;64.41
12624;BME280;6377;42.836;23.998;2023-02-27T00:31:17;94749.56;;;14.43;66.71
12624;BME280;6377;42.836;23.998;2023-02-27T00:33:44;94749.47;;;14.32;71.86
12624;BME280;6377;42.836;23.998;2023-02-27T00:36:11;94753.09;;;14.19;77.72
12624;BME280;6377;42.836;23.998;2023-02-27T00:38:39;94763.13;;;13.99;85.62
12624;BME280;6377;42.836;23.998;2023-02-27T00:41:06;94763.69;;;13.83;100.00
12624;BME280;6377;42.836;23.998;2023-02-27T00:43:34;94722.06;;;13.59;100.00
12624;BME280;6377;42.836;23.998;2023-02-27T00:46:01;94627.72;;;12.88;100.00
12624;BME280;6377;42.836;23.998;2023-02-27T00:48:30;94604.69;;;12.58;100.00
12624;BME280;6377;42.836;23.998;2023-02-27T00:50:58;94631.88;;;12.78;100.00
12624;BME280;6377;42.836;23.998;2023-02-27T00:53:25;94737.69;;;13.48;100.00
12624;BME280;6377;42.836;23.998;2023-02-27T00:55:53;94709.81;;;13.15;100.00
12624;BME280;6377;42.836;23.998;2023-02-27T00:58:20;94660.56;;;12.63;100.00
12624;BME280;6377;42.836;23.998;2023-02-27T01:00:48;94755.97;;;13.07;100.00
12624;BME280;6377;42.836;23.998;2023-02-27T01:03:15;94718.16;;;12.87;100.00
12624;BME280;6377;42.836;23.998;2023-02-27T01:05:44;94727.63;;;13.01;100.00
12624;BME280;6377;42.836;23.998;2023-02-27T01:08:11;94639.50;;;12.43;100.00
12624;BME280;6377;42.836;23.998;2023-02-27T01:10:39;94752.47;;;13.13;100.00
12624;BME280;6377;42.836;23.998;2023-02-27T01:13:06;94659.06;;;12.73;100.00
12624;BME280;6377;42.836;23.998;2023-02-27T01:15:34;94680.84;;;12.51;100.00
12624;BME280;6377;42.836;23.998;2023-02-27T01:18:01;94716.78;;;12.47;100.00
12624;BME280;6377;42.836;23.998;2023-02-27T01:20:29;94744.81;;;12.67;100.00
12624;BME280;6377;42.836;23.998;2023-02-27T01:22:57;94764.94;;;12.81;100.00
12624;BME280;6377;42.836;23.998;2023-02-27T01:25:25;94745.22;;;12.71;100.00
12624;BME280;6377;42.836;23.998;2023-02-27T01:27:52;94731.13;;;12.70;100.00
12624;BME280;6377;42.836;23.998;2023-02-27T01:30:20;94603.38;;;11.79;100.00
12624;BME280;6377;42.836;23.998;2023-02-27T01:32:47;94748.50;;;12.66;100.00
12624;BME280;6377;42.836;23.998;2023-02-27T01:35:15;94750.09;;;12.74;100.00
12624;BME280;6377;42.836;23.998;2023-02-27T01:37:42;94775.41;;;12.70;100.00
12624;BME280;6377;42.836;23.998;2023-02-27T01:40:12;94723.75;;;12.41;100.00
12624;BME280;6377;42.836;23.998;2023-02-27T01:42:41;94713.97;;;12.42;100.00
12624;BME280;6377;42.836;23.998;2023-02-27T01:45:26;94799.16;;;12.89;100.00
12624;BME280;6377;42.836;23.998;2023-02-27T01:47:59;94820.63;;;12.88;100.00
12624;BME280;6377;42.836;23.998;2023-02-27T01:50:30;94743.94;;;12.42;100.00
12624;BME280;6377;42.836;23.998;2023-02-27T01:53:00;94744.41;;;12.32;100.00
12624;BME280;6377;42.836;23.998;2023-02-27T01:55:32;94696.28;;;11.85;100.00
12624;BME280;6377;42.836;23.998;2023-02-27T01:58:03;94802.50;;;12.41;100.00
12624;BME280;6377;42.836;23.998;2023-02-27T02:00:31;94799.03;;;12.40;100.00
12624;BME280;6377;42.836;23.998;2023-02-27T02:03:06;94761.44;;;11.99;100.00
12624;BME280;6377;42.836;23.998;2023-02-27T02:05:35;94744.97;;;11.84;100.00
12624;BME280;6377;42.836;23.998;2023-02-27T02:08:02;94799.28;;;12.25;100.00
12624;BME280;6377;42.836;23.998;2023-02-27T02:10:32;94775.47;;;12.12;100.00
12624;BME280;6377;42.836;23.998;2023-02-27T02:13:00;94788.41;;;11.76;100.00
12624;BME280;6377;42.836;23.998;2023-02-27T02:15:32;94799.41;;;11.60;100.00
12624;BME280;6377;42.836;23.998;2023-02-27T02:18:11;94808.56;;;11.51;100.00
12624;BME280;6377;42.836;23.998;2023-02-27T02:20:59;94724.28;;;11.21;100.00
12624;BME280;6377;42.836;23.998;2023-02-27T02:24:11;94740.38;;;11.27;100.00
12624;BME280;6377;42.836;23.998;2023-02-27T02:26:52;94816.72;;;11.56;100.00
12624;BME280;6377;42.836;23.998;2023-02-27T02:29:42;94788.84;;;11.20;100.00
12624;BME280;6377;42.836;23.998;2023-02-27T02:32:45;94736.31;;;10.78;100.00
12624;BME280;6377;42.836;23.998;2023-02-27T02:35:32;94839.94;;;11.34;100.00
12624;BME280;6377;42.836;23.998;2023-02-27T02:38:31;94805.28;;;10.90;100.00
12624;BME280;6377;42.836;23.998;2023-02-27T02:41:09;94826.72;;;11.14;100.00
12624;BME280;6377;42.836;23.998;2023-02-27T02:43:42;94857.25;;;11.43;100.00
12624;BME280;6377;42.836;23.998;2023-02-27T02:46:17;94835.28;;;11.30;100.00
12624;BME280;6377;42.836;23.998;2023-02-27T02:48:50;94861.53;;;11.51;100.00
12624;BME280;6377;42.836;23.998;2023-02-27T02:51:26;94814.25;;;11.02;100.00
12624;BME280;6377;42.836;23.998;2023-02-27T02:54:02;94823.63;;;10.91;100.00
12624;BME280;6377;42.836;23.998;2023-02-27T02:56:35;94851.75;;;11.32;100.00
12624;BME280;6377;42.836;23.998;2023-02-27T02:59:08;94885.16;;;11.39;100.00
12624;BME280;6377;42.836;23.998;2023-02-27T03:01:40;94852.97;;;11.42;100.00
12624;BME280;6377;42.836;23.998;2023-02-27T03:04:12;94843.63;;;11.27;100.00
12624;BME280;6377;42.836;23.998;2023-02-27T03:06:44;94863.97;;;11.46;100.00
12624;BME280;6377;42.836;23.998;2023-02-27T03:09:17;94887.81;;;11.52;100.00
12624;BME280;6377;42.836;23.998;2023-02-27T03:11:47;94822.31;;;10.61;100.00
12624;BME280;6377;42.836;23.998;2023-02-27T03:14:20;94955.19;;;11.23;100.00
12624;BME280;6377;42.836;23.998;2023-02-27T03:16:52;95011.75;;;11.09;100.00
12624;BME280;6377;42.836;23.998;2023-02-27T03:19:23;95101.41;;;11.32;100.00
12624;BME280;6377;42.836;23.998;2023-02-27T03:21:55;95145.44;;;11.05;100.00
12624;BME280;6377;42.836;23.998;2023-02-27T03:24:30;95140.13;;;10.71;100.00
12624;BME280;6377;42.836;23.998;2023-02-27T03:27:00;95156.31;;;10.61;100.00
12624;BME280;6377;42.836;23.998;2023-02-27T03:29:34;95152.84;;;10.61;100.00
12624;BME280;6377;42.836;23.998;2023-02-27T03:32:08;95157.69;;;10.36;100.00
12624;BME280;6377;42.836;23.998;2023-02-27T03:34:40;95127.69;;;10.23;100.00
12624;BME280;6377;42.836;23.998;2023-02-27T03:37:19;95123.72;;;10.12;100.00
12624;BME280;6377;42.836;23.998;2023-02-27T03:39:53;95140.66;;;10.39;100.00
12624;BME280;6377;42.836;23.998;2023-02-27T03:42:25;95169.84;;;10.52;100.00
12624;BME280;6377;42.836;23.998;2023-02-27T03:45:01;95174.22;;;10.59;100.00
12624;BME280;6377;42.836;23.998;2023-02-27T03:47:30;95132.59;;;10.26;100.00
12624;BME280;6377;42.836;23.998;2023-02-27T03:49:58;95188.06;;;10.40;100.00
12624;BME280;6377;42.836;23.998;2023-02-27T03:52:27;95153.59;;;10.12;100.00
12624;BME280;6377;42.836;23.998;2023-02-27T03:55:02;95160.31;;;10.30;100.00
12624;BME280;6377;42.836;23.998;2023-02-27T03:57:33;95125.91;;;10.08;100.00
12624;BME280;6377;42.836;23.998;2023-02-27T04:00:01;95107.84;;;9.91;100.00
12624;BME280;6377;42.836;23.998;2023-02-27T04:02:31;95087.25;;;9.86;100.00
12624;BME280;6377;42.836;23.998;2023-02-27T04:04:59;95079.78;;;9.90;100.00
12624;BME280;6377;42.836;23.998;2023-02-27T04:07:30;95041.31;;;9.81;100.00
12624;BME280;6377;42.836;23.998;2023-02-27T04:10:18;95041.13;;;10.03;100.00
12624;BME280;6377;42.836;23.998;2023-02-27T04:13:10;95078.72;;;10.05;100.00
12624;BME280;6377;42.836;23.998;2023-02-27T04:15:54;95095.63;;;9.90;100.00
12624;BME280;6377;42.836;23.998;2023-02-27T04:18:37;95117.72;;;9.82;100.00
12624;BME280;6377;42.836;23.998;2023-02-27T04:21:14;95143.84;;;9.92;100.00
12624;BME280;6377;42.836;23.998;2023-02-27T04:23:51;95089.50;;;9.47;100.00
12624;BME280;6377;42.836;23.998;2023-02-27T04:26:27;95125.31;;;9.71;100.00
12624;BME280;6377;42.836;23.998;2023-02-27T04:29:02;95119.63;;;9.88;100.00
12624;BME280;6377;42.836;23.998;2023-02-27T04:31:36;95125.00;;;10.01;100.00
12624;BME280;6377;42.836;23.998;2023-02-27T04:34:16;95175.84;;;10.39;100.00
12624;BME280;6377;42.836;23.998;2023-02-27T04:36:47;95129.22;;;9.96;100.00
12624;BME280;6377;42.836;23.998;2023-02-27T04:39:21;95174.91;;;10.26;100.00
12624;BME280;6377;42.836;23.998;2023-02-27T04:41:57;95191.50;;;10.41;100.00
12624;BME280;6377;42.836;23.998;2023-02-27T04:44:27;95134.38;;;10.04;100.00
12624;BME280;6377;42.836;23.998;2023-02-27T04:46:57;95208.06;;;10.49;100.00
12624;BME280;6377;42.836;23.998;2023-02-27T04:49:28;95153.13;;;10.24;100.00
12624;BME280;6377;42.836;23.998;2023-02-27T04:52:01;95213.16;;;10.51;100.00
12624;BME280;6377;42.836;23.998;2023-02-27T04:54:33;95193.31;;;10.19;100.00
12624;BME280;6377;42.836;23.998;2023-02-27T04:57:08;95229.06;;;10.36;100.00
12624;BME280;6377;42.836;23.998;2023-02-27T04:59:40;95194.78;;;10.07;100.00
12624;BME280;6377;42.836;23.998;2023-02-27T05:02:12;95214.31;;;10.06;100.00
12624;BME280;6377;42.836;23.998;2023-02-27T05:04:43;95213.28;;;10.07;100.00
12624;BME280;6377;42.836;23.998;2023-02-27T05:07:13;95209.84;;;10.06;100.00
12624;BME280;6377;42.836;23.998;2023-02-27T05:09:44;95185.69;;;9.74;100.00
12624;BME280;6377;42.836;23.998;2023-02-27T05:12:18;95216.50;;;9.88;100.00
12624;BME280;6377;42.836;23.998;2023-02-27T05:14:50;95245.41;;;9.60;100.00
12624;BME280;6377;42.836;23.998;2023-02-27T05:17:20;95228.56;;;9.32;100.00
12624;BME280;6377;42.836;23.998;2023-02-27T05:19:49;95095.03;;;8.35;100.00
12624;BME280;6377;42.836;23.998;2023-02-27T05:22:24;95290.22;;;9.16;100.00
12624;BME280;6377;42.836;23.998;2023-02-27T05:25:00;95250.06;;;8.91;100.00
12624;BME280;6377;42.836;23.998;2023-02-27T05:27:38;95272.63;;;8.94;100.00
12624;BME280;6377;42.836;23.998;2023-02-27T05:30:18;95274.97;;;8.89;100.00
12624;BME280;6377;42.836;23.998;2023-02-27T05:32:52;95329.78;;;9.16;100.00
12624;BME280;6377;42.836;23.998;2023-02-27T05:35:24;95322.25;;;9.13;100.00
12624;BME280;6377;42.836;23.998;2023-02-27T05:38:01;95306.59;;;9.12;100.00
12624;BME280;6377;42.836;23.998;2023-02-27T05:40:34;95321.97;;;9.08;100.00
12624;BME280;6377;42.836;23.998;2023-02-27T05:43:09;95321.91;;;8.93;100.00
12624;BME280;6377;42.836;23.998;2023-02-27T05:45:39;95326.97;;;8.80;100.00
12624;BME280;6377;42.836;23.998;2023-02-27T05:48:11;95244.69;;;8.09;100.00
12624;BME280;6377;42.836;23.998;2023-02-27T05:50:41;95338.75;;;8.39;100.00
12624;BME280;6377;42.836;23.998;2023-02-27T05:53:12;95351.06;;;8.47;100.00
12624;BME280;6377;42.836;23.998;2023-02-27T05:55:42;95344.94;;;8.15;100.00
12624;BME280;6377;42.836;23.998;2023-02-27T05:58:17;95359.06;;;8.30;100.00
12624;BME280;6377;42.836;23.998;2023-02-27T06:00:48;95289.16;;;7.65;100.00
12624;BME280;6377;42.836;23.998;2023-02-27T06:03:17;95406.94;;;8.26;100.00
12624;BME280;6377;42.836;23.998;2023-02-27T06:05:45;95273.78;;;7.38;100.00
12624;BME280;6377;42.836;23.998;2023-02-27T06:08:15;95335.28;;;7.45;100.00
12624;BME280;6377;42.836;23.998;2023-02-27T06:10:42;95411.66;;;7.92;100.00
12624;BME280;6377;42.836;23.998;2023-02-27T06:13:09;95444.41;;;7.81;100.00
12624;BME280;6377;42.836;23.998;2023-02-27T06:15:38;95234.59;;;6.80;100.00
12624;BME280;6377;42.836;23.998;2023-02-27T06:18:05;95365.66;;;7.63;100.00
12624;BME280;6377;42.836;23.998;2023-02-27T06:20:32;95299.97;;;7.07;100.00
12624;BME280;6377;42.836;23.998;2023-02-27T06:23:01;95257.44;;;6.71;100.00
12624;BME280;6377;42.836;23.998;2023-02-27T06:25:29;95412.84;;;7.73;100.00
12624;BME280;6377;42.836;23.998;2023-02-27T06:27:56;95377.66;;;7.58;100.00
12624;BME280;6377;42.836;23.998;2023-02-27T06:30:23;95415.63;;;7.87;100.00
12624;BME280;6377;42.836;23.998;2023-02-27T06:32:52;95371.72;;;7.64;100.00
12624;BME280;6377;42.836;23.998;2023-02-27T06:35:20;95394.91;;;7.84;100.00
12624;BME280;6377;42.836;23.998;2023-02-27T06:37:47;95372.53;;;7.80;100.00
12624;BME280;6377;42.836;23.998;2023-02-27T06:40:15;95409.63;;;8.18;100.00
12624;BME280;6377;42.836;23.998;2023-02-27T06:42:44;95414.53;;;8.29;100.00
12624;BME280;6377;42.836;23.998;2023-02-27T06:45:12;95402.34;;;8.28;100.00
12624;BME280;6377;42.836;23.998;2023-02-27T06:47:40;95359.03;;;8.22;100.00
12624;BME280;6377;42.836;23.998;2023-02-27T06:50:10;95371.88;;;8.33;100.00
12624;BME280;6377;42.836;23.998;2023-02-27T06:52:38;95367.75;;;8.31;100.00
12624;BME280;6377;42.836;23.998;2023-02-27T06:55:07;95384.38;;;8.39;100.00
12624;BME280;6377;42.836;23.998;2023-02-27T06:57:35;95377.84;;;8.27;100.00
12624;BME280;6377;42.836;23.998;2023-02-27T07:00:04;95425.94;;;8.60;100.00
12624;BME280;6377;42.836;23.998;2023-02-27T07:02:31;95375.66;;;8.39;100.00
12624;BME280;6377;42.836;23.998;2023-02-27T07:04:59;95435.78;;;8.66;100.00
12624;BME280;6377;42.836;23.998;2023-02-27T07:07:27;95407.53;;;8.52;100.00
12624;BME280;6377;42.836;23.998;2023-02-27T07:09:55;95396.94;;;8.29;100.00
12624;BME280;6377;42.836;23.998;2023-02-27T07:12:22;95324.72;;;7.53;100.00
12624;BME280;6377;42.836;23.998;2023-02-27T07:14:49;95453.06;;;8.38;100.00
12624;BME280;6377;42.836;23.998;2023-02-27T07:17:17;95457.84;;;8.26;100.00
12624;BME280;6377;42.836;23.998;2023-02-27T07:19:44;95435.22;;;7.85;100.00
12624;BME280;6377;42.836;23.998;2023-02-27T07:22:11;95427.34;;;7.61;100.00
12624;BME280;6377;42.836;23.998;2023-02-27T07:24:40;95440.31;;;7.78;100.00
12624;BME280;6377;42.836;23.998;2023-02-27T07:27:07;95429.31;;;7.67;100.00
12624;BME280;6377;42.836;23.998;2023-02-27T07:29:35;95397.94;;;7.33;100.00
12624;BME280;6377;42.836;23.998;2023-02-27T07:32:02;95442.50;;;7.43;100.00
12624;BME280;6377;42.836;23.998;2023-02-27T07:34:30;95431.78;;;7.28;100.00
12624;BME280;6377;42.836;23.998;2023-02-27T07:36:57;95487.91;;;7.69;100.00
12624;BME280;6377;42.836;23.998;2023-02-27T07:39:24;95420.78;;;7.32;100.00
12624;BME280;6377;42.836;23.998;2023-02-27T07:41:53;95446.44;;;7.39;100.00
12624;BME280;6377;42.836;23.998;2023-02-27T07:44:20;95503.00;;;7.59;100.00
12624;BME280;6377;42.836;23.998;2023-02-27T07:46:48;95429.97;;;7.04;100.00
12624;BME280;6377;42.836;23.998;2023-02-27T07:49:15;95457.25;;;7.11;100.00
12624;BME280;6377;42.836;23.998;2023-02-27T07:51:42;95478.97;;;7.29;100.00
12624;BME280;6377;42.836;23.998;2023-02-27T07:54:09;95505.16;;;7.39;100.00
12624;BME280;6377;42.836;23.998;2023-02-27T07:56:37;95431.78;;;7.04;100.00
12624;BME280;6377;42.836;23.998;2023-02-27T07:59:06;95488.53;;;7.30;100.00
12624;BME280;6377;42.836;23.998;2023-02-27T08:01:34;95468.91;;;7.01;100.00
12624;BME280;6377;42.836;23.998;2023-02-27T08:04:01;95557.63;;;7.65;100.00
12624;BME280;6377;42.836;23.998;2023-02-27T08:06:28;95510.72;;;7.36;100.00
12624;BME280;6377;42.836;23.998;2023-02-27T08:08:55;95512.88;;;7.49;100.00
12624;BME280;6377;42.836;23.998;2023-02-27T08:11:23;95492.31;;;7.44;100.00
12624;BME280;6377;42.836;23.998;2023-02-27T08:13:50;95499.06;;;7.39;100.00
12624;BME280;6377;42.836;23.998;2023-02-27T08:16:19;95549.59;;;7.74;100.00
12624;BME280;6377;42.836;23.998;2023-02-27T08:18:46;95561.59;;;7.85;100.00
12624;BME280;6377;42.836;23.998;2023-02-27T08:21:13;95564.56;;;7.82;100.00
12624;BME280;6377;42.836;23.998;2023-02-27T08:23:41;95567.03;;;7.83;100.00
12624;BME280;6377;42.836;23.998;2023-02-27T08:26:09;95572.94;;;7.85;100.00
12624;BME280;6377;42.836;23.998;2023-02-27T08:28:36;95581.84;;;7.76;100.00
12624;BME280;6377;42.836;23.998;2023-02-27T08:31:03;95591.03;;;7.72;100.00
12624;BME280;6377;42.836;23.998;2023-02-27T08:33:33;95588.06;;;7.75;100.00
12624;BME280;6377;42.836;23.998;2023-02-27T08:36:00;95597.63;;;7.84;100.00
12624;BME280;6377;42.836;23.998;2023-02-27T08:38:27;95600.63;;;7.89;100.00
12624;BME280;6377;42.836;23.998;2023-02-27T08:40:55;95469.25;;;7.06;100.00
12624;BME280;6377;42.836;23.998;2023-02-27T08:43:22;95512.34;;;7.37;100.00
12624;BME280;6377;42.836;23.998;2023-02-27T08:45:50;95609.16;;;7.83;100.00
12624;BME280;6377;42.836;23.998;2023-02-27T08:48:17;95618.53;;;7.86;100.00
12624;BME280;6377;42.836;23.998;2023-02-27T08:50:46;95619.50;;;7.77;100.00
12624;BME280;6377;42.836;23.998;2023-02-27T08:53:13;95614.25;;;7.69;100.00
12624;BME280;6377;42.836;23.998;2023-02-27T08:55:41;95608.41;;;7.41;100.00
12624;BME280;6377;42.836;23.998;2023-02-27T08:58:09;95616.38;;;7.57;100.00
12624;BME280;6377;42.836;23.998;2023-02-27T09:00:36;95625.06;;;7.58;100.00
12624;BME280;6377;42.836;23.998;2023-02-27T09:03:04;95625.56;;;7.53;100.00
12624;BME280;6377;42.836;23.998;2023-02-27T09:05:31;95639.69;;;7.52;100.00
12624;BME280;6377;42.836;23.998;2023-02-27T09:08:02;95614.63;;;7.32;100.00
12624;BME280;6377;42.836;23.998;2023-02-27T09:10:30;95637.66;;;7.30;100.00
12624;BME280;6377;42.836;23.998;2023-02-27T09:12:57;95640.09;;;7.23;100.00
12624;BME280;6377;42.836;23.998;2023-02-27T09:15:25;95636.81;;;7.29;100.00
12624;BME280;6377;42.836;23.998;2023-02-27T09:17:52;95644.91;;;7.36;100.00
12624;BME280;6377;42.836;23.998;2023-02-27T09:20:21;95588.56;;;7.05;100.00
12624;BME280;6377;42.836;23.998;2023-02-27T09:22:48;95640.69;;;7.51;100.00
12624;BME280;6377;42.836;23.998;2023-02-27T09:25:17;95603.25;;;7.15;100.00
12624;BME280;6377;42.836;23.998;2023-02-27T09:27:44;95629.16;;;7.52;100.00
12624;BME280;6377;42.836;23.998;2023-02-27T09:30:12;95672.16;;;7.77;100.00
12624;BME280;6377;42.836;23.998;2023-02-27T09:32:39;95649.31;;;7.85;100.00
12624;BME280;6377;42.836;23.998;2023-02-27T09:35:08;95621.31;;;7.84;100.00
12624;BME280;6377;42.836;23.998;2023-02-27T09:37:35;95652.97;;;8.09;100.00
12624;BME280;6377;42.836;23.998;2023-02-27T09:40:03;95491.34;;;6.71;100.00
12624;BME280;6377;42.836;23.998;2023-02-27T09:42:36;95660.00;;;7.84;100.00
12624;BME280;6377;42.836;23.998;2023-02-27T09:45:16;95657.13;;;7.53;100.00
12624;BME280;6377;42.836;23.998;2023-02-27T09:47:51;95659.78;;;7.61;100.00
12624;BME280;6377;42.836;23.998;2023-02-27T09:50:37;95651.22;;;7.59;100.00
12624;BME280;6377;42.836;23.998;2023-02-27T09:53:10;95653.88;;;7.67;100.00
12624;BME280;6377;42.836;23.998;2023-02-27T09:55:40;95661.97;;;7.90;100.00
12624;BME280;6377;42.836;23.998;2023-02-27T09:58:28;95667.22;;;7.74;100.00
12624;BME280;6377;42.836;23.998;2023-02-27T10:00:59;95667.38;;;7.72;100.00
12624;BME280;6377;42.836;23.998;2023-02-27T10:03:43;95650.13;;;7.28;100.00
12624;BME280;6377;42.836;23.998;2023-02-27T10:06:22;95683.47;;;7.61;100.00
12624;BME280;6377;42.836;23.998;2023-02-27T10:09:05;95594.00;;;7.11;100.00
12624;BME280;6377;42.836;23.998;2023-02-27T10:11:43;95653.38;;;7.64;100.00
12624;BME280;6377;42.836;23.998;2023-02-27T10:14:24;95691.13;;;7.97;100.00
12624;BME280;6377;42.836;23.998;2023-02-27T10:16:55;95686.88;;;8.04;100.00
12624;BME280;6377;42.836;23.998;2023-02-27T10:19:27;95685.41;;;8.09;100.00
12624;BME280;6377;42.836;23.998;2023-02-27T10:21:59;95683.22;;;7.88;100.00
12624;BME280;6377;42.836;23.998;2023-02-27T10:24:33;95646.16;;;7.82;100.00
12624;BME280;6377;42.836;23.998;2023-02-27T10:27:05;95675.19;;;8.14;100.00
12624;BME280;6377;42.836;23.998;2023-02-27T10:29:36;95686.69;;;8.05;100.00
12624;BME280;6377;42.836;23.998;2023-02-27T10:32:09;95682.59;;;8.03;100.00
12624;BME280;6377;42.836;23.998;2023-02-27T10:34:41;95643.41;;;7.92;100.00
12624;BME280;6377;42.836;23.998;2023-02-27T10:37:13;95670.09;;;8.13;100.00
12624;BME280;6377;42.836;23.998;2023-02-27T10:39:45;95684.13;;;8.37;100.00
12624;BME280;6377;42.836;23.998;2023-02-27T10:42:14;95537.56;;;7.64;100.00
12624;BME280;6377;42.836;23.998;2023-02-27T10:44:44;95539.34;;;7.63;100.00
12624;BME280;6377;42.836;23.998;2023-02-27T10:47:13;95509.34;;;7.08;100.00
12624;BME280;6377;42.836;23.998;2023-02-27T10:49:42;95696.97;;;8.49;100.00
12624;BME280;6377;42.836;23.998;2023-02-27T10:52:11;95700.28;;;8.59;100.00
12624;BME280;6377;42.836;23.998;2023-02-27T10:54:40;95703.06;;;8.57;100.00
12624;BME280;6377;42.836;23.998;2023-02-27T10:57:25;95701.09;;;8.59;100.00
12624;BME280;6377;42.836;23.998;2023-02-27T10:59:56;95688.75;;;8.43;100.00
12624;BME280;6377;42.836;23.998;2023-02-27T11:02:27;95528.97;;;7.29;100.00
12624;BME280;6377;42.836;23.998;2023-02-27T11:04:58;95702.53;;;8.21;100.00
12624;BME280;6377;42.836;23.998;2023-02-27T11:07:29;95699.72;;;8.23;100.00
12624;BME280;6377;42.836;23.998;2023-02-27T11:10:04;95674.38;;;8.22;100.00
12624;BME280;6377;42.836;23.998;2023-02-27T11:12:55;95663.56;;;8.33;100.00
12624;BME280;6377;42.836;23.998;2023-02-27T11:15:26;95698.31;;;8.69;100.00
12624;BME280;6377;42.836;23.998;2023-02-27T11:17:53;95703.91;;;8.74;100.00
12624;BME280;6377;42.836;23.998;2023-02-27T11:20:32;95708.34;;;8.57;100.00
12624;BME280;6377;42.836;23.998;2023-02-27T11:23:05;95712.63;;;8.58;100.00
12624;BME280;6377;42.836;23.998;2023-02-27T11:25:33;95695.78;;;8.19;100.00
12624;BME280;6377;42.836;23.998;2023-02-27T11:28:19;95711.13;;;8.31;100.00
12624;BME280;6377;42.836;23.998;2023-02-27T11:30:56;95718.06;;;8.32;100.00
12624;BME280;6377;42.836;23.998;2023-02-27T11:33:25;95701.28;;;8.33;100.00
12624;BME280;6377;42.836;23.998;2023-02-27T11:35:54;95664.81;;;8.21;100.00
12624;BME280;6377;42.836;23.998;2023-02-27T11:38:23;95718.88;;;8.49;100.00
12624;BME280;6377;42.836;23.998;2023-02-27T11:40:56;95716.56;;;8.38;100.00
12624;BME280;6377;42.836;23.998;2023-02-27T11:43:25;95712.06;;;8.22;100.00
12624;BME280;6377;42.836;23.998;2023-02-27T11:45:57;95714.88;;;8.21;100.00
12624;BME280;6377;42.836;23.998;2023-02-27T11:48:28;95716.19;;;8.25;100.00
12624;BME280;6377;42.836;23.998;2023-02-27T11:51:12;95719.53;;;8.35;100.00
12624;BME280;6377;42.836;23.998;2023-02-27T11:54:12;95720.50;;;8.34;100.00
12624;BME280;6377;42.836;23.998;2023-02-27T11:56:43;95729.56;;;8.31;100.00
12624;BME280;6377;42.836;23.998;2023-02-27T11:59:27;95692.41;;;7.84;100.00
12624;BME280;6377;42.836;23.998;2023-02-27T12:02:02;95708.59;;;7.98;100.00
12624;BME280;6377;42.836;23.998;2023-02-27T12:04:42;95721.13;;;8.12;100.00
12624;BME280;6377;42.836;23.998;2023-02-27T12:07:16;95720.16;;;8.13;100.00
12624;BME280;6377;42.836;23.998;2023-02-27T12:09:51;95726.25;;;8.21;100.00
12624;BME280;6377;42.836;23.998;2023-02-27T12:12:24;95731.56;;;8.29;100.00
12624;BME280;6377;42.836;23.998;2023-02-27T12:15:02;95694.97;;;8.18;100.00
12624;BME280;6377;42.836;23.998;2023-02-27T12:17:35;95734.88;;;8.39;100.00
12624;BME280;6377;42.836;23.998;2023-02-27T12:20:28;95665.88;;;7.70;100.00
12624;BME280;6377;42.836;23.998;2023-02-27T12:23:01;95671.53;;;7.91;100.00
12624;BME280;6377;42.836;23.998;2023-02-27T12:25:35;95728.09;;;8.37;100.00
12624;BME280;6377;42.836;23.998;2023-02-27T12:28:11;95688.22;;;8.24;100.00
12624;BME280;6377;42.836;23.998;2023-02-27T12:30:49;95667.13;;;8.16;100.00
12624;BME280;6377;42.836;23.998;2023-02-27T12:33:24;95723.66;;;8.62;100.00
12624;BME280;6377;42.836;23.998;2023-02-27T12:36:01;95723.00;;;8.76;100.00
12624;BME280;6377;42.836;23.998;2023-02-27T12:38:30;95732.38;;;8.78;100.00
12624;BME280;6377;42.836;23.998;2023-02-27T12:41:14;95751.53;;;8.88;100.00
12624;BME280;6377;42.836;23.998;2023-02-27T12:43:47;95744.59;;;8.79;100.00
12624;BME280;6377;42.836;23.998;2023-02-27T12:46:27;95720.03;;;8.55;100.00
12624;BME280;6377;42.836;23.998;2023-02-27T12:49:11;95752.31;;;8.81;100.00
12624;BME280;6377;42.836;23.998;2023-02-27T12:51:48;95733.88;;;8.73;100.00
12624;BME280;6377;42.836;23.998;2023-02-27T12:54:25;95736.66;;;8.95;100.00
12624;BME280;6377;42.836;23.998;2023-02-27T12:57:05;95719.03;;;8.88;100.00
12624;BME280;6377;42.836;23.998;2023-02-27T12:59:55;95747.03;;;9.13;100.00
12624;BME280;6377;42.836;23.998;2023-02-27T13:02:55;95742.75;;;8.96;100.00
12624;BME280;6377;42.836;23.998;2023-02-27T13:08:19;95760.91;;;8.91;100.00
12624;BME280;6377;42.836;23.998;2023-02-27T13:10:50;95754.47;;;8.93;100.00
12624;BME280;6377;42.836;23.998;2023-02-27T13:13:25;95761.75;;;8.83;100.00
12624;BME280;6377;42.836;23.998;2023-02-27T13:15:55;95765.03;;;8.77;100.00
12624;BME280;6377;42.836;23.998;2023-02-27T13:18:33;95719.06;;;8.48;100.00
12624;BME280;6377;42.836;23.998;2023-02-27T13:21:11;95770.63;;;8.90;100.00
12624;BME280;6377;42.836;23.998;2023-02-27T13:26:41;95791.75;;;8.82;100.00
12624;BME280;6377;42.836;23.998;2023-02-27T13:29:11;95790.56;;;8.85;100.00